Wind From: 11-12-2017 12:03 Until: 12-12-2017 06:00 warning for: Wind Level: Orange info button

Power and phone distribution networks may be disrupted for relatively long periods., Roofs and chimneys can be damaged. , Tree branches may break. , Vehicles can be deported. , Traffic may be disrupted, particularly on secondary roads in forest areas. Limit your trips. , Limit your speed in highway driving, especially if you drive a vehicle or hitch sensitive to wind. , Do not go for walks in forests or along the coast., In town, be vigilant against possible falling objects., Do not work on roofs and do not touch any electrical line fallen on the ground., Store or secure sensitive objects to wind or likely to be damaged., Always install power generators outside buildings. 


Meteo18 Weather Cam more information Meteo18 Weather Cam


Thunder radar more information blitzortung!


Rain radar more information rain snow radar


Visit our other weather sites:

Template documentation
and downloads

And another site



Weather Underground History page Text

Daily Summary for June 4, 2017 Units:  Both    English   Metric
« Previous Day
Next Day »
Daily Weekly Monthly Yearly Custom
  High: Low: Average:
Temperature: 68.7 °F /  20.4 °C 49.5 °F /  9.7 °C 60.4 °F /  15.8 °C
Dew Point: 56.1 °F /  13.4 °C 47.7 °F /  8.7 °C 51.3 °F /  10.7 °C
Humidity: 96 % 49 % 74 %
Wind Speed: 7 mph /  11.3 km/h - 1.3 mph /  2.1 km/h
Wind Gust: 9 mph /  14.5 km/h - -
Wind:- - WSW
Pressure: 30.2 in /  1021.9 hPa 30.1 in /  1017.8 hPa -
Precipitation: 0.05 in /  1.3 mm    
Historical Graphs
 
 
Tabular Data for June 4, 2017
Time Temperature Dew Point Pressure Wind Wind Speed Wind Gust Humidity Rainfall Rate (Hourly)
00:02 57.6 °F /  14.2 °C 56.1 °F /  13.4 °C 30.1 in /  1018.2 hPa NW 4 mph /  6.4 km/h 9 mph /  14.5 km/h 95 % 0.04 in /  1.0 mm
00:07 57.2 °F /  14.0 °C 55.8 °F /  13.2 °C 30.1 in /  1018.2 hPa NW 4 mph /  6.4 km/h 9 mph /  14.5 km/h 95 % 0.06 in /  1.5 mm
00:12 57 °F /  13.9 °C 55.6 °F /  13.1 °C 30.1 in /  1018.2 hPa NNW 3 mph /  4.8 km/h 8 mph /  12.9 km/h 95 % 0.07 in /  1.8 mm
00:17 57 °F /  13.9 °C 55.6 °F /  13.1 °C 30.1 in /  1018.2 hPa NNW 3 mph /  4.8 km/h 8 mph /  12.9 km/h 95 % 0.08 in /  2.0 mm
00:22 57 °F /  13.9 °C 55.6 °F /  13.1 °C 30.1 in /  1018.5 hPa Calm   7 mph /  11.3 km/h 95 % 0.08 in /  2.0 mm
00:32 56.7 °F /  13.7 °C 55.2 °F /  12.9 °C 30.1 in /  1018.2 hPa NNW 4 mph /  6.4 km/h 6 mph /  9.7 km/h 95 % 0.07 in /  1.8 mm
00:42 56.7 °F /  13.7 °C 55.2 °F /  12.9 °C 30.1 in /  1018.5 hPa NNW 1 mph /  1.6 km/h 6 mph /  9.7 km/h 95 % 0.08 in /  2.0 mm
00:47 56.5 °F /  13.6 °C 55 °F /  12.8 °C 30.1 in /  1018.5 hPa NNW 3 mph /  4.8 km/h 6 mph /  9.7 km/h 95 % 0.08 in /  2.0 mm
00:52 56.5 °F /  13.6 °C 55 °F /  12.8 °C 30.1 in /  1018.2 hPa NNE 3 mph /  4.8 km/h 6 mph /  9.7 km/h 95 % 0.07 in /  1.8 mm
00:57 56.3 °F /  13.5 °C 54.7 °F /  12.6 °C 30.1 in /  1018.5 hPa North 4 mph /  6.4 km/h 6 mph /  9.7 km/h 94 % 0.06 in /  1.5 mm
01:02 56.1 °F /  13.4 °C 54.5 °F /  12.5 °C 30.1 in /  1018.5 hPa NNW 5 mph /  8.0 km/h 7 mph /  11.3 km/h 94 % 0.04 in /  1.0 mm
01:07 56.1 °F /  13.4 °C 54.5 °F /  12.5 °C 30.1 in /  1018.5 hPa NNW 3 mph /  4.8 km/h 7 mph /  11.3 km/h 94 % 0.03 in /  0.8 mm
01:12 55.9 °F /  13.3 °C 54.3 °F /  12.4 °C 30.1 in /  1018.5 hPa NNW 2 mph /  3.2 km/h 7 mph /  11.3 km/h 94 % 0.02 in /  0.5 mm
01:17 55.9 °F /  13.3 °C 54.3 °F /  12.4 °C 30.1 in /  1018.5 hPa North 3 mph /  4.8 km/h 7 mph /  11.3 km/h 94 % 0.01 in /  0.3 mm
01:22 55.9 °F /  13.3 °C 54.3 °F /  12.4 °C 30.1 in /  1018.5 hPa NNW 2 mph /  3.2 km/h 6 mph /  9.7 km/h 94 % 0.01 in /  0.3 mm
01:27 55.8 °F /  13.2 °C 54.1 °F /  12.3 °C 30.1 in /  1018.8 hPa NW 1 mph /  1.6 km/h 6 mph /  9.7 km/h 94 % 0.01 in /  0.3 mm
01:32 55.8 °F /  13.2 °C 54.1 °F /  12.3 °C 30.1 in /  1018.8 hPa NW 2 mph /  3.2 km/h 6 mph /  9.7 km/h 94 % 0 in /  0.0 mm
01:37 55.8 °F /  13.2 °C 54.1 °F /  12.3 °C 30.1 in /  1018.8 hPa NW 3 mph /  4.8 km/h 6 mph /  9.7 km/h 94 % 0 in /  0.0 mm
01:42 55.8 °F /  13.2 °C 54.1 °F /  12.3 °C 30.1 in /  1018.8 hPa WNW 1 mph /  1.6 km/h 6 mph /  9.7 km/h 94 % 0 in /  0.0 mm
01:47 55.8 °F /  13.2 °C 54.1 °F /  12.3 °C 30.1 in /  1018.8 hPa WNW 5 mph /  8.0 km/h 6 mph /  9.7 km/h 94 % 0 in /  0.0 mm
01:52 55.8 °F /  13.2 °C 54.1 °F /  12.3 °C 30.1 in /  1018.8 hPa NW 3 mph /  4.8 km/h 8 mph /  12.9 km/h 94 % 0 in /  0.0 mm
01:57 55.8 °F /  13.2 °C 54.1 °F /  12.3 °C 30.1 in /  1018.8 hPa NNW 2 mph /  3.2 km/h 8 mph /  12.9 km/h 94 % 0 in /  0.0 mm
02:02 55.8 °F /  13.2 °C 54.1 °F /  12.3 °C 30.1 in /  1018.8 hPa North 1 mph /  1.6 km/h 8 mph /  12.9 km/h 94 % 0 in /  0.0 mm
02:07 55.8 °F /  13.2 °C 54.1 °F /  12.3 °C 30.1 in /  1018.8 hPa Calm   5 mph /  8.0 km/h 94 % 0 in /  0.0 mm
02:12 55.8 °F /  13.2 °C 54.1 °F /  12.3 °C 30.1 in /  1018.8 hPa NW 2 mph /  3.2 km/h 5 mph /  8.0 km/h 94 % 0 in /  0.0 mm
02:22 55.8 °F /  13.2 °C 54.1 °F /  12.3 °C 30.1 in /  1018.8 hPa NW 1 mph /  1.6 km/h 5 mph /  8.0 km/h 94 % 0 in /  0.0 mm
02:27 55.8 °F /  13.2 °C 54.1 °F /  12.3 °C 30.1 in /  1018.8 hPa Calm   5 mph /  8.0 km/h 94 % 0 in /  0.0 mm
02:32 55.8 °F /  13.2 °C 54.1 °F /  12.3 °C 30.1 in /  1019.2 hPa Calm   5 mph /  8.0 km/h 94 % 0 in /  0.0 mm
02:37 55.6 °F /  13.1 °C 54 °F /  12.2 °C 30.1 in /  1019.2 hPa NNW 2 mph /  3.2 km/h 6 mph /  9.7 km/h 94 % 0 in /  0.0 mm
02:42 55.6 °F /  13.1 °C 54 °F /  12.2 °C 30.1 in /  1019.2 hPa WNW 3 mph /  4.8 km/h 6 mph /  9.7 km/h 94 % 0 in /  0.0 mm
02:47 55.6 °F /  13.1 °C 54 °F /  12.2 °C 30.1 in /  1019.2 hPa Calm   6 mph /  9.7 km/h 94 % 0 in /  0.0 mm
02:52 55.6 °F /  13.1 °C 54 °F /  12.2 °C 30.1 in /  1019.2 hPa WNW 2 mph /  3.2 km/h 4 mph /  6.4 km/h 94 % 0 in /  0.0 mm
02:57 55.6 °F /  13.1 °C 54 °F /  12.2 °C 30.1 in /  1019.2 hPa WNW 1 mph /  1.6 km/h 5 mph /  8.0 km/h 94 % 0 in /  0.0 mm
03:02 55.4 °F /  13.0 °C 53.8 °F /  12.1 °C 30.1 in /  1019.5 hPa West 3 mph /  4.8 km/h 5 mph /  8.0 km/h 94 % 0 in /  0.0 mm
03:07 55.2 °F /  12.9 °C 53.6 °F /  12.0 °C 30.1 in /  1019.5 hPa West 1 mph /  1.6 km/h 6 mph /  9.7 km/h 94 % 0 in /  0.0 mm
03:12 55.2 °F /  12.9 °C 53.6 °F /  12.0 °C 30.1 in /  1019.2 hPa WNW 1 mph /  1.6 km/h 6 mph /  9.7 km/h 94 % 0 in /  0.0 mm
03:17 55.2 °F /  12.9 °C 53.6 °F /  12.0 °C 30.1 in /  1019.5 hPa Calm   6 mph /  9.7 km/h 94 % 0 in /  0.0 mm
03:22 55.2 °F /  12.9 °C 53.8 °F /  12.1 °C 30.1 in /  1019.5 hPa WNW 1 mph /  1.6 km/h 2 mph /  3.2 km/h 95 % 0 in /  0.0 mm
03:27 55.2 °F /  12.9 °C 53.8 °F /  12.1 °C 30.1 in /  1019.5 hPa WNW 1 mph /  1.6 km/h 3 mph /  4.8 km/h 95 % 0 in /  0.0 mm
03:32 55 °F /  12.8 °C 53.6 °F /  12.0 °C 30.1 in /  1019.5 hPa Calm   3 mph /  4.8 km/h 95 % 0 in /  0.0 mm
03:42 54.9 °F /  12.7 °C 53.4 °F /  11.9 °C 30.1 in /  1019.5 hPa NW 1 mph /  1.6 km/h 4 mph /  6.4 km/h 95 % 0 in /  0.0 mm
03:47 54.5 °F /  12.5 °C 52.9 °F /  11.6 °C 30.1 in /  1019.5 hPa WNW 3 mph /  4.8 km/h 4 mph /  6.4 km/h 94 % 0 in /  0.0 mm
03:52 54.3 °F /  12.4 °C 52.7 °F /  11.5 °C 30.1 in /  1019.5 hPa WNW 1 mph /  1.6 km/h 4 mph /  6.4 km/h 94 % 0 in /  0.0 mm
03:57 54.1 °F /  12.3 °C 52.5 °F /  11.4 °C 30.1 in /  1019.5 hPa NW 2 mph /  3.2 km/h 4 mph /  6.4 km/h 94 % 0 in /  0.0 mm
04:02 54 °F /  12.2 °C 52.3 °F /  11.3 °C 30.1 in /  1019.5 hPa WNW 2 mph /  3.2 km/h 4 mph /  6.4 km/h 94 % 0 in /  0.0 mm
04:07 54 °F /  12.2 °C 52.3 °F /  11.3 °C 30.1 in /  1019.5 hPa West 1 mph /  1.6 km/h 4 mph /  6.4 km/h 94 % 0 in /  0.0 mm
04:12 53.8 °F /  12.1 °C 52.2 °F /  11.2 °C 30.1 in /  1019.9 hPa WNW 1 mph /  1.6 km/h 4 mph /  6.4 km/h 94 % 0 in /  0.0 mm
04:17 53.8 °F /  12.1 °C 52.2 °F /  11.2 °C 30.1 in /  1019.5 hPa NW 2 mph /  3.2 km/h 4 mph /  6.4 km/h 94 % 0 in /  0.0 mm
04:22 53.6 °F /  12.0 °C 52 °F /  11.1 °C 30.1 in /  1019.5 hPa West 1 mph /  1.6 km/h 3 mph /  4.8 km/h 94 % 0 in /  0.0 mm
04:32 53.2 °F /  11.8 °C 51.6 °F /  10.9 °C 30.1 in /  1019.5 hPa NW 1 mph /  1.6 km/h 3 mph /  4.8 km/h 94 % 0 in /  0.0 mm
04:37 52.9 °F /  11.6 °C 51.3 °F /  10.7 °C 30.1 in /  1019.9 hPa Calm   3 mph /  4.8 km/h 94 % 0 in /  0.0 mm
04:42 52.7 °F /  11.5 °C 51.1 °F /  10.6 °C 30.1 in /  1019.9 hPa NNW 1 mph /  1.6 km/h 3 mph /  4.8 km/h 94 % 0 in /  0.0 mm
04:47 52.5 °F /  11.4 °C 50.9 °F /  10.5 °C 30.1 in /  1019.9 hPa NNW 1 mph /  1.6 km/h 3 mph /  4.8 km/h 94 % 0 in /  0.0 mm
04:52 52.3 °F /  11.3 °C 50.7 °F /  10.4 °C 30.1 in /  1019.9 hPa NNW 2 mph /  3.2 km/h 2 mph /  3.2 km/h 94 % 0 in /  0.0 mm
04:57 52.2 °F /  11.2 °C 50.5 °F /  10.3 °C 30.1 in /  1019.9 hPa North 1 mph /  1.6 km/h 3 mph /  4.8 km/h 94 % 0 in /  0.0 mm
05:02 52 °F /  11.1 °C 50.4 °F /  10.2 °C 30.1 in /  1019.9 hPa NNW 1 mph /  1.6 km/h 3 mph /  4.8 km/h 94 % 0 in /  0.0 mm
05:12 52 °F /  11.1 °C 50.4 °F /  10.2 °C 30.1 in /  1019.9 hPa Calm   2 mph /  3.2 km/h 94 % 0 in /  0.0 mm
05:17 52 °F /  11.1 °C 50.4 °F /  10.2 °C 30.1 in /  1019.9 hPa Calm   2 mph /  3.2 km/h 94 % 0 in /  0.0 mm
05:22 52 °F /  11.1 °C 50.4 °F /  10.2 °C 30.1 in /  1019.9 hPa Calm     94 % 0 in /  0.0 mm
05:32 51.3 °F /  10.7 °C 49.6 °F /  9.8 °C 30.1 in /  1019.9 hPa Calm     94 % 0 in /  0.0 mm
05:42 50.5 °F /  10.3 °C 48.9 °F /  9.4 °C 30.1 in /  1019.9 hPa Calm     94 % 0 in /  0.0 mm
05:52 50.5 °F /  10.3 °C 49.1 °F /  9.5 °C 30.1 in /  1020.2 hPa Calm     95 % 0 in /  0.0 mm
06:02 49.8 °F /  9.9 °C 48.4 °F /  9.1 °C 30.1 in /  1020.2 hPa Calm     95 % 0 in /  0.0 mm
06:17 49.5 °F /  9.7 °C 48 °F /  8.9 °C 30.1 in /  1020.5 hPa Calm     95 % 0 in /  0.0 mm
06:22 49.5 °F /  9.7 °C 48.4 °F /  9.1 °C 30.1 in /  1020.5 hPa Calm     96 % 0 in /  0.0 mm
06:27 49.5 °F /  9.7 °C 48.4 °F /  9.1 °C 30.1 in /  1020.5 hPa Calm     96 % 0 in /  0.0 mm
06:32 49.5 °F /  9.7 °C 48.4 °F /  9.1 °C 30.1 in /  1020.5 hPa Calm     96 % 0 in /  0.0 mm
06:42 49.6 °F /  9.8 °C 48.6 °F /  9.2 °C 30.2 in /  1020.9 hPa Calm     96 % 0 in /  0.0 mm
06:47 49.6 °F /  9.8 °C 48.6 °F /  9.2 °C 30.2 in /  1020.9 hPa Calm     96 % 0 in /  0.0 mm
06:57 50 °F /  10.0 °C 48.6 °F /  9.2 °C 30.2 in /  1020.9 hPa Calm     95 % 0 in /  0.0 mm
07:02 50.2 °F /  10.1 °C 48.7 °F /  9.3 °C 30.2 in /  1020.9 hPa Calm     95 % 0 in /  0.0 mm
07:12 50.7 °F /  10.4 °C 49.3 °F /  9.6 °C 30.2 in /  1020.9 hPa Calm     95 % 0 in /  0.0 mm
07:17 51.4 °F /  10.8 °C 50 °F /  10.0 °C 30.2 in /  1020.9 hPa Calm     95 % 0 in /  0.0 mm
07:22 52.9 °F /  11.6 °C 51.8 °F /  11.0 °C 30.2 in /  1021.2 hPa Calm     96 % 0 in /  0.0 mm
07:32 53.8 °F /  12.1 °C 51.8 °F /  11.0 °C 30.2 in /  1021.2 hPa Calm     93 % 0 in /  0.0 mm
07:42 54.9 °F /  12.7 °C 52.5 °F /  11.4 °C 30.2 in /  1021.2 hPa Calm     92 % 0 in /  0.0 mm
07:52 56.1 °F /  13.4 °C 53.2 °F /  11.8 °C 30.2 in /  1021.6 hPa Calm     90 % 0 in /  0.0 mm
07:57 55.6 °F /  13.1 °C 52.3 °F /  11.3 °C 30.2 in /  1021.6 hPa Calm     89 % 0 in /  0.0 mm
08:02 55.4 °F /  13.0 °C 52.2 °F /  11.2 °C 30.2 in /  1021.6 hPa Calm   1 mph /  1.6 km/h 89 % 0 in /  0.0 mm
08:12 55.9 °F /  13.3 °C 52.7 °F /  11.5 °C 30.2 in /  1021.6 hPa Calm   2 mph /  3.2 km/h 89 % 0 in /  0.0 mm
08:17 55.9 °F /  13.3 °C 52.7 °F /  11.5 °C 30.2 in /  1021.6 hPa Calm   2 mph /  3.2 km/h 89 % 0 in /  0.0 mm
08:22 56.1 °F /  13.4 °C 52.7 °F /  11.5 °C 30.2 in /  1021.9 hPa Calm   2 mph /  3.2 km/h 88 % 0 in /  0.0 mm
08:27 56.3 °F /  13.5 °C 53.1 °F /  11.7 °C 30.2 in /  1021.9 hPa Calm   2 mph /  3.2 km/h 89 % 0 in /  0.0 mm
08:32 56.5 °F /  13.6 °C 53.2 °F /  11.8 °C 30.2 in /  1021.9 hPa Calm   1 mph /  1.6 km/h 89 % 0 in /  0.0 mm
08:37 56.5 °F /  13.6 °C 53.2 °F /  11.8 °C 30.2 in /  1021.9 hPa Calm     89 % 0 in /  0.0 mm
08:42 56.5 °F /  13.6 °C 52.9 °F /  11.6 °C 30.2 in /  1021.6 hPa Calm     88 % 0 in /  0.0 mm
08:47 56.7 °F /  13.7 °C 53.1 °F /  11.7 °C 30.2 in /  1021.6 hPa Calm     88 % 0 in /  0.0 mm
08:52 56.8 °F /  13.8 °C 53.2 °F /  11.8 °C 30.2 in /  1021.6 hPa Calm     88 % 0 in /  0.0 mm
08:57 57 °F /  13.9 °C 52.9 °F /  11.6 °C 30.2 in /  1021.6 hPa East 1 mph /  1.6 km/h   86 % 0 in /  0.0 mm
09:02 56.8 °F /  13.8 °C 52.7 °F /  11.5 °C 30.2 in /  1021.6 hPa ENE 2 mph /  3.2 km/h 2 mph /  3.2 km/h 86 % 0 in /  0.0 mm
09:12 57 °F /  13.9 °C 52 °F /  11.1 °C 30.2 in /  1021.2 hPa ENE 2 mph /  3.2 km/h 2 mph /  3.2 km/h 83 % 0 in /  0.0 mm
09:17 57.6 °F /  14.2 °C 53.1 °F /  11.7 °C 30.2 in /  1021.2 hPa Calm   3 mph /  4.8 km/h 85 % 0 in /  0.0 mm
09:22 57.7 °F /  14.3 °C 52 °F /  11.1 °C 30.2 in /  1021.2 hPa North 2 mph /  3.2 km/h 3 mph /  4.8 km/h 81 % 0 in /  0.0 mm
09:32 58.3 °F /  14.6 °C 52.5 °F /  11.4 °C 30.2 in /  1021.6 hPa Calm   4 mph /  6.4 km/h 81 % 0 in /  0.0 mm
09:37 59.9 °F /  15.5 °C 53.8 °F /  12.1 °C 30.2 in /  1021.6 hPa Calm   4 mph /  6.4 km/h 80 % 0 in /  0.0 mm
09:42 60.6 °F /  15.9 °C 53.4 °F /  11.9 °C 30.2 in /  1021.6 hPa Calm   4 mph /  6.4 km/h 77 % 0 in /  0.0 mm
09:47 60.4 °F /  15.8 °C 52.5 °F /  11.4 °C 30.2 in /  1021.2 hPa Calm   4 mph /  6.4 km/h 75 % 0 in /  0.0 mm
09:52 60.1 °F /  15.6 °C 51.8 °F /  11.0 °C 30.2 in /  1021.2 hPa Calm   4 mph /  6.4 km/h 74 % 0 in /  0.0 mm
09:57 60.1 °F /  15.6 °C 51.1 °F /  10.6 °C 30.2 in /  1021.2 hPa North 2 mph /  3.2 km/h 4 mph /  6.4 km/h 72 % 0 in /  0.0 mm
10:02 60.1 °F /  15.6 °C 51.8 °F /  11.0 °C 30.2 in /  1021.2 hPa NNE 2 mph /  3.2 km/h 6 mph /  9.7 km/h 74 % 0 in /  0.0 mm
10:07 60.6 °F /  15.9 °C 50.7 °F /  10.4 °C 30.2 in /  1021.2 hPa NNE 5 mph /  8.0 km/h 6 mph /  9.7 km/h 70 % 0 in /  0.0 mm
10:12 60.4 °F /  15.8 °C 49.5 °F /  9.7 °C 30.2 in /  1021.2 hPa WNW 2 mph /  3.2 km/h 7 mph /  11.3 km/h 67 % 0 in /  0.0 mm
10:17 60.4 °F /  15.8 °C 50.5 °F /  10.3 °C 30.2 in /  1021.6 hPa North 1 mph /  1.6 km/h 7 mph /  11.3 km/h 70 % 0 in /  0.0 mm
10:27 60.8 °F /  16.0 °C 48.9 °F /  9.4 °C 30.2 in /  1021.6 hPa NNE 2 mph /  3.2 km/h 8 mph /  12.9 km/h 65 % 0 in /  0.0 mm
10:32 60.6 °F /  15.9 °C 49.3 °F /  9.6 °C 30.2 in /  1021.6 hPa NE 3 mph /  4.8 km/h 8 mph /  12.9 km/h 66 % 0 in /  0.0 mm
10:37 60.8 °F /  16.0 °C 50.2 °F /  10.1 °C 30.2 in /  1021.6 hPa Calm   7 mph /  11.3 km/h 68 % 0 in /  0.0 mm
10:42 61.2 °F /  16.2 °C 50.2 °F /  10.1 °C 30.2 in /  1021.6 hPa West 1 mph /  1.6 km/h 7 mph /  11.3 km/h 67 % 0 in /  0.0 mm
10:47 61.3 °F /  16.3 °C 50.4 °F /  10.2 °C 30.2 in /  1021.6 hPa West 6 mph /  9.7 km/h 6 mph /  9.7 km/h 67 % 0 in /  0.0 mm
10:52 61.5 °F /  16.4 °C 50.5 °F /  10.3 °C 30.2 in /  1021.6 hPa NE 4 mph /  6.4 km/h 6 mph /  9.7 km/h 67 % 0 in /  0.0 mm
10:57 61.3 °F /  16.3 °C 48.6 °F /  9.2 °C 30.2 in /  1021.6 hPa NNW 3 mph /  4.8 km/h 6 mph /  9.7 km/h 63 % 0 in /  0.0 mm
11:02 61.3 °F /  16.3 °C 49.1 °F /  9.5 °C 30.2 in /  1021.2 hPa West 3 mph /  4.8 km/h 7 mph /  11.3 km/h 64 % 0 in /  0.0 mm
11:07 61.7 °F /  16.5 °C 48.9 °F /  9.4 °C 30.2 in /  1021.2 hPa NNE 2 mph /  3.2 km/h 7 mph /  11.3 km/h 63 % 0 in /  0.0 mm
11:12 61.7 °F /  16.5 °C 48.9 °F /  9.4 °C 30.2 in /  1021.2 hPa NNW 2 mph /  3.2 km/h 7 mph /  11.3 km/h 63 % 0 in /  0.0 mm
11:17 61.9 °F /  16.6 °C 50.4 °F /  10.2 °C 30.2 in /  1021.2 hPa North 4 mph /  6.4 km/h 7 mph /  11.3 km/h 66 % 0 in /  0.0 mm
11:22 62.1 °F /  16.7 °C 50.5 °F /  10.3 °C 30.2 in /  1021.2 hPa NNW 3 mph /  4.8 km/h 9 mph /  14.5 km/h 66 % 0 in /  0.0 mm
11:32 62.2 °F /  16.8 °C 50 °F /  10.0 °C 30.2 in /  1021.2 hPa West 1 mph /  1.6 km/h 7 mph /  11.3 km/h 64 % 0 in /  0.0 mm
11:37 63 °F /  17.2 °C 50.5 °F /  10.3 °C 30.2 in /  1021.2 hPa NE 2 mph /  3.2 km/h 5 mph /  8.0 km/h 64 % 0 in /  0.0 mm
11:42 63.1 °F /  17.3 °C 50.7 °F /  10.4 °C 30.2 in /  1021.2 hPa WNW 4 mph /  6.4 km/h 6 mph /  9.7 km/h 64 % 0 in /  0.0 mm
11:47 63.3 °F /  17.4 °C 49.3 °F /  9.6 °C 30.2 in /  1021.2 hPa SW 2 mph /  3.2 km/h 6 mph /  9.7 km/h 60 % 0 in /  0.0 mm
11:52 63.5 °F /  17.5 °C 50.7 °F /  10.4 °C 30.2 in /  1021.2 hPa WNW 2 mph /  3.2 km/h 6 mph /  9.7 km/h 63 % 0 in /  0.0 mm
11:57 64.6 °F /  18.1 °C 52.2 °F /  11.2 °C 30.2 in /  1021.2 hPa NNE 4 mph /  6.4 km/h 5 mph /  8.0 km/h 64 % 0 in /  0.0 mm
12:02 63.9 °F /  17.7 °C 50.5 °F /  10.3 °C 30.2 in /  1021.2 hPa NNW 2 mph /  3.2 km/h 7 mph /  11.3 km/h 62 % 0 in /  0.0 mm
12:07 63.1 °F /  17.3 °C 49.8 °F /  9.9 °C 30.2 in /  1021.2 hPa North 1 mph /  1.6 km/h 7 mph /  11.3 km/h 62 % 0 in /  0.0 mm
12:12 63 °F /  17.2 °C 49.8 °F /  9.9 °C 30.2 in /  1021.2 hPa Calm   7 mph /  11.3 km/h 62 % 0 in /  0.0 mm
12:17 62.8 °F /  17.1 °C 50 °F /  10.0 °C 30.2 in /  1021.2 hPa NNW 2 mph /  3.2 km/h 7 mph /  11.3 km/h 63 % 0 in /  0.0 mm
12:22 62.8 °F /  17.1 °C 50 °F /  10.0 °C 30.2 in /  1021.2 hPa WNW 2 mph /  3.2 km/h 7 mph /  11.3 km/h 63 % 0 in /  0.0 mm
12:32 63.9 °F /  17.7 °C 51.4 °F /  10.8 °C 30.2 in /  1021.2 hPa NNW 7 mph /  11.3 km/h 7 mph /  11.3 km/h 64 % 0 in /  0.0 mm
12:37 63.7 °F /  17.6 °C 50 °F /  10.0 °C 30.2 in /  1021.2 hPa West 1 mph /  1.6 km/h 7 mph /  11.3 km/h 61 % 0 in /  0.0 mm
12:42 63.1 °F /  17.3 °C 49.8 °F /  9.9 °C 30.2 in /  1021.2 hPa NW 3 mph /  4.8 km/h 7 mph /  11.3 km/h 62 % 0 in /  0.0 mm
12:47 64 °F /  17.8 °C 52.5 °F /  11.4 °C 30.2 in /  1021.2 hPa NNE 6 mph /  9.7 km/h 7 mph /  11.3 km/h 66 % 0 in /  0.0 mm
12:52 63.9 °F /  17.7 °C 50.5 °F /  10.3 °C 30.2 in /  1021.2 hPa West 2 mph /  3.2 km/h 7 mph /  11.3 km/h 62 % 0 in /  0.0 mm
12:57 63.9 °F /  17.7 °C 50.5 °F /  10.3 °C 30.2 in /  1020.9 hPa West 2 mph /  3.2 km/h 6 mph /  9.7 km/h 62 % 0 in /  0.0 mm
13:02 63.9 °F /  17.7 °C 50.2 °F /  10.1 °C 30.2 in /  1020.9 hPa North 2 mph /  3.2 km/h 6 mph /  9.7 km/h 61 % 0 in /  0.0 mm
13:07 63.7 °F /  17.6 °C 50 °F /  10.0 °C 30.2 in /  1020.9 hPa NW 4 mph /  6.4 km/h 7 mph /  11.3 km/h 61 % 0 in /  0.0 mm
13:12 63.5 °F /  17.5 °C 49.8 °F /  9.9 °C 30.2 in /  1020.9 hPa West 3 mph /  4.8 km/h 8 mph /  12.9 km/h 61 % 0 in /  0.0 mm
13:17 63.9 °F /  17.7 °C 51.4 °F /  10.8 °C 30.2 in /  1020.9 hPa West 4 mph /  6.4 km/h 8 mph /  12.9 km/h 64 % 0 in /  0.0 mm
13:22 64.2 °F /  17.9 °C 50.5 °F /  10.3 °C 30.2 in /  1020.9 hPa WNW 1 mph /  1.6 km/h 8 mph /  12.9 km/h 61 % 0 in /  0.0 mm
13:27 64.2 °F /  17.9 °C 50.5 °F /  10.3 °C 30.2 in /  1020.9 hPa WNW 1 mph /  1.6 km/h 8 mph /  12.9 km/h 61 % 0 in /  0.0 mm
13:32 64.8 °F /  18.2 °C 50.5 °F /  10.3 °C 30.2 in /  1020.9 hPa NNW 1 mph /  1.6 km/h 6 mph /  9.7 km/h 60 % 0 in /  0.0 mm
13:37 64.9 °F /  18.3 °C 50.7 °F /  10.4 °C 30.2 in /  1020.9 hPa Calm   6 mph /  9.7 km/h 60 % 0 in /  0.0 mm
13:42 65.1 °F /  18.4 °C 50.4 °F /  10.2 °C 30.2 in /  1020.9 hPa North 2 mph /  3.2 km/h 6 mph /  9.7 km/h 59 % 0 in /  0.0 mm
13:47 65.1 °F /  18.4 °C 51.3 °F /  10.7 °C 30.2 in /  1020.9 hPa NNW 2 mph /  3.2 km/h 6 mph /  9.7 km/h 61 % 0 in /  0.0 mm
13:52 65.1 °F /  18.4 °C 51.8 °F /  11.0 °C 30.1 in /  1020.5 hPa WNW 3 mph /  4.8 km/h 5 mph /  8.0 km/h 62 % 0 in /  0.0 mm
13:57 65.5 °F /  18.6 °C 50.4 °F /  10.2 °C 30.1 in /  1020.5 hPa NW 2 mph /  3.2 km/h 5 mph /  8.0 km/h 58 % 0 in /  0.0 mm
14:02 65.5 °F /  18.6 °C 51.6 °F /  10.9 °C 30.1 in /  1020.5 hPa NW 4 mph /  6.4 km/h 5 mph /  8.0 km/h 61 % 0 in /  0.0 mm
14:07 65.1 °F /  18.4 °C 49.5 °F /  9.7 °C 30.1 in /  1020.5 hPa NNE 1 mph /  1.6 km/h 6 mph /  9.7 km/h 57 % 0 in /  0.0 mm
14:12 65.1 °F /  18.4 °C 50 °F /  10.0 °C 30.1 in /  1020.5 hPa Calm   6 mph /  9.7 km/h 58 % 0 in /  0.0 mm
14:17 65.1 °F /  18.4 °C 48.6 °F /  9.2 °C 30.1 in /  1020.5 hPa NW 5 mph /  8.0 km/h 7 mph /  11.3 km/h 55 % 0 in /  0.0 mm
14:22 65.1 °F /  18.4 °C 49.1 °F /  9.5 °C 30.1 in /  1020.5 hPa Calm   7 mph /  11.3 km/h 56 % 0 in /  0.0 mm
14:27 65.8 °F /  18.8 °C 51.1 °F /  10.6 °C 30.1 in /  1020.2 hPa NW 2 mph /  3.2 km/h 7 mph /  11.3 km/h 59 % 0 in /  0.0 mm
14:37 65.7 °F /  18.7 °C 50 °F /  10.0 °C 30.1 in /  1020.2 hPa ENE 2 mph /  3.2 km/h 5 mph /  8.0 km/h 57 % 0 in /  0.0 mm
14:42 65.5 °F /  18.6 °C 50.7 °F /  10.4 °C 30.1 in /  1020.2 hPa West 1 mph /  1.6 km/h 4 mph /  6.4 km/h 59 % 0 in /  0.0 mm
14:47 65.1 °F /  18.4 °C 50.4 °F /  10.2 °C 30.1 in /  1020.2 hPa WNW 2 mph /  3.2 km/h 5 mph /  8.0 km/h 59 % 0 in /  0.0 mm
14:52 65.3 °F /  18.5 °C 50.2 °F /  10.1 °C 30.1 in /  1020.2 hPa SW 1 mph /  1.6 km/h 5 mph /  8.0 km/h 58 % 0 in /  0.0 mm
14:57 66 °F /  18.9 °C 49.8 °F /  9.9 °C 30.1 in /  1019.9 hPa Calm   5 mph /  8.0 km/h 56 % 0 in /  0.0 mm
15:02 66.6 °F /  19.2 °C 49.5 °F /  9.7 °C 30.1 in /  1020.2 hPa WNW 5 mph /  8.0 km/h 5 mph /  8.0 km/h 54 % 0 in /  0.0 mm
15:07 66 °F /  18.9 °C 49.5 °F /  9.7 °C 30.1 in /  1020.2 hPa West 4 mph /  6.4 km/h 6 mph /  9.7 km/h 55 % 0 in /  0.0 mm
15:12 66 °F /  18.9 °C 49.5 °F /  9.7 °C 30.1 in /  1020.2 hPa West 3 mph /  4.8 km/h 6 mph /  9.7 km/h 55 % 0 in /  0.0 mm
15:17 66 °F /  18.9 °C 49.8 °F /  9.9 °C 30.1 in /  1020.2 hPa SW 3 mph /  4.8 km/h 7 mph /  11.3 km/h 56 % 0 in /  0.0 mm
15:22 66.2 °F /  19.0 °C 49.6 °F /  9.8 °C 30.1 in /  1020.2 hPa WNW 1 mph /  1.6 km/h 7 mph /  11.3 km/h 55 % 0 in /  0.0 mm
15:27 66.2 °F /  19.0 °C 49.6 °F /  9.8 °C 30.1 in /  1020.2 hPa NNW 1 mph /  1.6 km/h 7 mph /  11.3 km/h 55 % 0 in /  0.0 mm
15:32 66.2 °F /  19.0 °C 49.1 °F /  9.5 °C 30.1 in /  1019.9 hPa West 2 mph /  3.2 km/h 5 mph /  8.0 km/h 54 % 0 in /  0.0 mm
15:37 66.2 °F /  19.0 °C 50 °F /  10.0 °C 30.1 in /  1019.9 hPa West 3 mph /  4.8 km/h 5 mph /  8.0 km/h 56 % 0 in /  0.0 mm
15:42 65.8 °F /  18.8 °C 50.2 °F /  10.1 °C 30.1 in /  1019.9 hPa West 2 mph /  3.2 km/h 5 mph /  8.0 km/h 57 % 0 in /  0.0 mm
15:47 65.7 °F /  18.7 °C 49.5 °F /  9.7 °C 30.1 in /  1019.9 hPa West 3 mph /  4.8 km/h 5 mph /  8.0 km/h 56 % 0 in /  0.0 mm
15:52 65.5 °F /  18.6 °C 49.3 °F /  9.6 °C 30.1 in /  1019.9 hPa West 2 mph /  3.2 km/h 4 mph /  6.4 km/h 56 % 0 in /  0.0 mm
15:57 65.8 °F /  18.8 °C 48.7 °F /  9.3 °C 30.1 in /  1019.9 hPa WSW 3 mph /  4.8 km/h 4 mph /  6.4 km/h 54 % 0 in /  0.0 mm
16:02 66 °F /  18.9 °C 48.9 °F /  9.4 °C 30.1 in /  1019.9 hPa Calm   4 mph /  6.4 km/h 54 % 0 in /  0.0 mm
16:07 67.1 °F /  19.5 °C 49.5 °F /  9.7 °C 30.1 in /  1019.9 hPa West 2 mph /  3.2 km/h 4 mph /  6.4 km/h 53 % 0 in /  0.0 mm
16:12 67.1 °F /  19.5 °C 48.9 °F /  9.4 °C 30.1 in /  1019.9 hPa Calm   6 mph /  9.7 km/h 52 % 0 in /  0.0 mm
16:17 66.9 °F /  19.4 °C 48.7 °F /  9.3 °C 30.1 in /  1019.9 hPa Calm   6 mph /  9.7 km/h 52 % 0 in /  0.0 mm
16:22 67.5 °F /  19.7 °C 49.3 °F /  9.6 °C 30.1 in /  1019.9 hPa WNW 4 mph /  6.4 km/h 6 mph /  9.7 km/h 52 % 0 in /  0.0 mm
16:27 67.5 °F /  19.7 °C 49.3 °F /  9.6 °C 30.1 in /  1019.5 hPa Calm   5 mph /  8.0 km/h 52 % 0 in /  0.0 mm
16:32 67.6 °F /  19.8 °C 48.4 °F /  9.1 °C 30.1 in /  1019.5 hPa West 4 mph /  6.4 km/h 4 mph /  6.4 km/h 50 % 0 in /  0.0 mm
16:37 66.9 °F /  19.4 °C 47.7 °F /  8.7 °C 30.1 in /  1019.5 hPa WSW 2 mph /  3.2 km/h 7 mph /  11.3 km/h 50 % 0 in /  0.0 mm
16:42 67.1 °F /  19.5 °C 47.8 °F /  8.8 °C 30.1 in /  1019.5 hPa Calm   7 mph /  11.3 km/h 50 % 0 in /  0.0 mm
16:47 67.3 °F /  19.6 °C 48 °F /  8.9 °C 30.1 in /  1019.5 hPa NE 1 mph /  1.6 km/h 6 mph /  9.7 km/h 50 % 0 in /  0.0 mm
16:52 66.7 °F /  19.3 °C 50 °F /  10.0 °C 30.1 in /  1019.2 hPa Calm   5 mph /  8.0 km/h 55 % 0 in /  0.0 mm
16:57 67.1 °F /  19.5 °C 51.8 °F /  11.0 °C 30.1 in /  1019.2 hPa Calm   5 mph /  8.0 km/h 58 % 0 in /  0.0 mm
17:02 67.3 °F /  19.6 °C 50.5 °F /  10.3 °C 30.1 in /  1019.2 hPa Calm   4 mph /  6.4 km/h 55 % 0 in /  0.0 mm
17:07 67.6 °F /  19.8 °C 49.5 °F /  9.7 °C 30.1 in /  1019.2 hPa Calm   3 mph /  4.8 km/h 52 % 0 in /  0.0 mm
17:12 67.8 °F /  19.9 °C 49.6 °F /  9.8 °C 30.1 in /  1019.2 hPa WNW 1 mph /  1.6 km/h 4 mph /  6.4 km/h 52 % 0 in /  0.0 mm
17:17 67.6 °F /  19.8 °C 49.5 °F /  9.7 °C 30.1 in /  1019.2 hPa NNW 1 mph /  1.6 km/h 4 mph /  6.4 km/h 52 % 0 in /  0.0 mm
17:22 66.9 °F /  19.4 °C 49.3 °F /  9.6 °C 30.1 in /  1019.2 hPa Calm   4 mph /  6.4 km/h 53 % 0 in /  0.0 mm
17:27 67.5 °F /  19.7 °C 49.8 °F /  9.9 °C 30.1 in /  1019.2 hPa WNW 1 mph /  1.6 km/h 3 mph /  4.8 km/h 53 % 0 in /  0.0 mm
17:32 67.6 °F /  19.8 °C 50.4 °F /  10.2 °C 30.1 in /  1018.8 hPa Calm   3 mph /  4.8 km/h 54 % 0 in /  0.0 mm
17:37 68.2 °F /  20.1 °C 51.8 °F /  11.0 °C 30.1 in /  1018.8 hPa East 2 mph /  3.2 km/h 3 mph /  4.8 km/h 56 % 0 in /  0.0 mm
17:42 67.6 °F /  19.8 °C 50.9 °F /  10.5 °C 30.1 in /  1018.8 hPa NNE 4 mph /  6.4 km/h 4 mph /  6.4 km/h 55 % 0 in /  0.0 mm
17:47 67.5 °F /  19.7 °C 50.7 °F /  10.4 °C 30.1 in /  1018.8 hPa NNE 3 mph /  4.8 km/h 4 mph /  6.4 km/h 55 % 0 in /  0.0 mm
17:52 66.7 °F /  19.3 °C 50 °F /  10.0 °C 30.1 in /  1018.8 hPa ENE 1 mph /  1.6 km/h 5 mph /  8.0 km/h 55 % 0 in /  0.0 mm
17:57 66.6 °F /  19.2 °C 49.8 °F /  9.9 °C 30.1 in /  1018.8 hPa Calm   5 mph /  8.0 km/h 55 % 0 in /  0.0 mm
18:02 66.7 °F /  19.3 °C 51.1 °F /  10.6 °C 30.1 in /  1018.8 hPa East 1 mph /  1.6 km/h 5 mph /  8.0 km/h 57 % 0 in /  0.0 mm
18:07 67.5 °F /  19.7 °C 51.3 °F /  10.7 °C 30.1 in /  1018.8 hPa NE 2 mph /  3.2 km/h 3 mph /  4.8 km/h 56 % 0 in /  0.0 mm
18:12 66.9 °F /  19.4 °C 49.8 °F /  9.9 °C 30.1 in /  1018.8 hPa ENE 5 mph /  8.0 km/h 6 mph /  9.7 km/h 54 % 0 in /  0.0 mm
18:17 67.3 °F /  19.6 °C 51.1 °F /  10.6 °C 30.1 in /  1018.8 hPa NE 2 mph /  3.2 km/h 6 mph /  9.7 km/h 56 % 0 in /  0.0 mm
18:22 66.9 °F /  19.4 °C 49.8 °F /  9.9 °C 30.1 in /  1018.8 hPa NNE 2 mph /  3.2 km/h 6 mph /  9.7 km/h 54 % 0 in /  0.0 mm
18:32 67.5 °F /  19.7 °C 49.8 °F /  9.9 °C 30.1 in /  1018.8 hPa WNW 3 mph /  4.8 km/h 5 mph /  8.0 km/h 53 % 0 in /  0.0 mm
18:42 67.6 °F /  19.8 °C 50.4 °F /  10.2 °C 30.1 in /  1018.8 hPa WNW 4 mph /  6.4 km/h 7 mph /  11.3 km/h 54 % 0 in /  0.0 mm
18:47 67.3 °F /  19.6 °C 49.6 °F /  9.8 °C 30.1 in /  1018.8 hPa WNW 3 mph /  4.8 km/h 8 mph /  12.9 km/h 53 % 0 in /  0.0 mm
18:52 67.5 °F /  19.7 °C 49.8 °F /  9.9 °C 30.1 in /  1018.8 hPa WNW 4 mph /  6.4 km/h 8 mph /  12.9 km/h 53 % 0 in /  0.0 mm
18:57 67.8 °F /  19.9 °C 49.6 °F /  9.8 °C 30.1 in /  1018.5 hPa Calm   7 mph /  11.3 km/h 52 % 0 in /  0.0 mm
19:02 67.8 °F /  19.9 °C 49.1 °F /  9.5 °C 30.1 in /  1018.5 hPa WSW 3 mph /  4.8 km/h 7 mph /  11.3 km/h 51 % 0 in /  0.0 mm
19:12 68.5 °F /  20.3 °C 50.2 °F /  10.1 °C 30.1 in /  1018.5 hPa NW 1 mph /  1.6 km/h 6 mph /  9.7 km/h 52 % 0 in /  0.0 mm
19:17 68.7 °F /  20.4 °C 49.3 °F /  9.6 °C 30.1 in /  1018.5 hPa North 1 mph /  1.6 km/h 6 mph /  9.7 km/h 50 % 0 in /  0.0 mm
19:22 68.4 °F /  20.2 °C 48.9 °F /  9.4 °C 30.1 in /  1018.5 hPa NNW 1 mph /  1.6 km/h 6 mph /  9.7 km/h 50 % 0 in /  0.0 mm
19:27 68.5 °F /  20.3 °C 50.2 °F /  10.1 °C 30.1 in /  1018.5 hPa North 1 mph /  1.6 km/h 5 mph /  8.0 km/h 52 % 0 in /  0.0 mm
19:32 68.4 °F /  20.2 °C 48.4 °F /  9.1 °C 30.1 in /  1018.5 hPa Calm   5 mph /  8.0 km/h 49 % 0 in /  0.0 mm
19:37 68.2 °F /  20.1 °C 48.9 °F /  9.4 °C 30.1 in /  1018.5 hPa WNW 1 mph /  1.6 km/h 3 mph /  4.8 km/h 50 % 0 in /  0.0 mm
19:42 68 °F /  20.0 °C 50.7 °F /  10.4 °C 30.1 in /  1018.5 hPa Calm   3 mph /  4.8 km/h 54 % 0 in /  0.0 mm
19:47 67.6 °F /  19.8 °C 49.8 °F /  9.9 °C 30.1 in /  1018.5 hPa North 1 mph /  1.6 km/h 4 mph /  6.4 km/h 53 % 0 in /  0.0 mm
19:52 67.5 °F /  19.7 °C 50.7 °F /  10.4 °C 30.1 in /  1018.5 hPa WNW 2 mph /  3.2 km/h 4 mph /  6.4 km/h 55 % 0 in /  0.0 mm
19:57 67.3 °F /  19.6 °C 51.1 °F /  10.6 °C 30.1 in /  1018.5 hPa Calm   4 mph /  6.4 km/h 56 % 0 in /  0.0 mm
20:02 67.1 °F /  19.5 °C 50.9 °F /  10.5 °C 30.1 in /  1018.2 hPa Calm   3 mph /  4.8 km/h 56 % 0 in /  0.0 mm
20:07 66.9 °F /  19.4 °C 49.8 °F /  9.9 °C 30.1 in /  1018.2 hPa Calm   3 mph /  4.8 km/h 54 % 0 in /  0.0 mm
20:12 66.9 °F /  19.4 °C 50.7 °F /  10.4 °C 30.1 in /  1018.2 hPa Calm   3 mph /  4.8 km/h 56 % 0 in /  0.0 mm
20:17 66.6 °F /  19.2 °C 50.9 °F /  10.5 °C 30.1 in /  1018.2 hPa NW 1 mph /  1.6 km/h 2 mph /  3.2 km/h 57 % 0 in /  0.0 mm
20:22 66.2 °F /  19.0 °C 51.4 °F /  10.8 °C 30.1 in /  1018.2 hPa WNW 1 mph /  1.6 km/h 2 mph /  3.2 km/h 59 % 0 in /  0.0 mm
20:27 66.2 °F /  19.0 °C 51.4 °F /  10.8 °C 30.1 in /  1018.2 hPa Calm   2 mph /  3.2 km/h 59 % 0 in /  0.0 mm
20:32 66.2 °F /  19.0 °C 52.3 °F /  11.3 °C 30.1 in /  1018.2 hPa NE 1 mph /  1.6 km/h 2 mph /  3.2 km/h 61 % 0 in /  0.0 mm
20:42 65.1 °F /  18.4 °C 50.9 °F /  10.5 °C 30.1 in /  1018.2 hPa Calm   1 mph /  1.6 km/h 60 % 0 in /  0.0 mm
20:47 65.3 °F /  18.5 °C 51.4 °F /  10.8 °C 30.1 in /  1018.2 hPa Calm   1 mph /  1.6 km/h 61 % 0 in /  0.0 mm
20:52 65.5 °F /  18.6 °C 51.6 °F /  10.9 °C 30.1 in /  1018.2 hPa Calm     61 % 0 in /  0.0 mm
21:02 65.7 °F /  18.7 °C 51.8 °F /  11.0 °C 30.1 in /  1018.2 hPa Calm     61 % 0 in /  0.0 mm
21:07 66.4 °F /  19.1 °C 54.3 °F /  12.4 °C 30.1 in /  1018.2 hPa Calm     65 % 0 in /  0.0 mm
21:12 66 °F /  18.9 °C 52.2 °F /  11.2 °C 30.1 in /  1018.2 hPa Calm     61 % 0 in /  0.0 mm
21:17 64.9 °F /  18.3 °C 51.6 °F /  10.9 °C 30.1 in /  1018.2 hPa Calm     62 % 0 in /  0.0 mm
21:22 64 °F /  17.8 °C 51.3 °F /  10.7 °C 30.1 in /  1018.2 hPa Calm     63 % 0 in /  0.0 mm
21:27 63.5 °F /  17.5 °C 52.3 °F /  11.3 °C 30.1 in /  1018.2 hPa Calm     67 % 0 in /  0.0 mm
21:37 61.5 °F /  16.4 °C 52 °F /  11.1 °C 30.1 in /  1018.2 hPa Calm     71 % 0 in /  0.0 mm
21:42 61.2 °F /  16.2 °C 52 °F /  11.1 °C 30.1 in /  1017.8 hPa Calm     72 % 0 in /  0.0 mm
21:47 60.6 °F /  15.9 °C 51.6 °F /  10.9 °C 30.1 in /  1017.8 hPa Calm     72 % 0 in /  0.0 mm
21:52 60.3 °F /  15.7 °C 51.6 °F /  10.9 °C 30.1 in /  1018.2 hPa Calm     73 % 0 in /  0.0 mm
21:57 59.9 °F /  15.5 °C 51.6 °F /  10.9 °C 30.1 in /  1018.2 hPa Calm     74 % 0 in /  0.0 mm
22:02 59.5 °F /  15.3 °C 51.6 °F /  10.9 °C 30.1 in /  1018.2 hPa Calm     75 % 0 in /  0.0 mm
22:12 58.8 °F /  14.9 °C 51.3 °F /  10.7 °C 30.1 in /  1018.5 hPa Calm     76 % 0 in /  0.0 mm
22:17 58.6 °F /  14.8 °C 51.4 °F /  10.8 °C 30.1 in /  1018.5 hPa Calm     77 % 0 in /  0.0 mm
22:22 58.5 °F /  14.7 °C 51.6 °F /  10.9 °C 30.1 in /  1018.5 hPa Calm     78 % 0 in /  0.0 mm
22:27 58.3 °F /  14.6 °C 51.8 °F /  11.0 °C 30.1 in /  1018.5 hPa Calm     79 % 0 in /  0.0 mm
22:32 58.1 °F /  14.5 °C 51.6 °F /  10.9 °C 30.1 in /  1018.5 hPa Calm     79 % 0 in /  0.0 mm
22:37 57.9 °F /  14.4 °C 51.4 °F /  10.8 °C 30.1 in /  1018.5 hPa Calm     79 % 0 in /  0.0 mm
22:42 57.6 °F /  14.2 °C 51.8 °F /  11.0 °C 30.1 in /  1018.8 hPa Calm     81 % 0 in /  0.0 mm
22:47 57.2 °F /  14.0 °C 51.8 °F /  11.0 °C 30.1 in /  1018.8 hPa Calm     82 % 0 in /  0.0 mm
22:52 56.7 °F /  13.7 °C 51.6 °F /  10.9 °C 30.1 in /  1018.8 hPa Calm     83 % 0 in /  0.0 mm
22:57 56.5 °F /  13.6 °C 51.6 °F /  10.9 °C 30.1 in /  1018.8 hPa Calm     84 % 0 in /  0.0 mm
23:02 56.5 °F /  13.6 °C 51.6 °F /  10.9 °C 30.1 in /  1018.8 hPa Calm     84 % 0 in /  0.0 mm
23:07 56.3 °F /  13.5 °C 51.3 °F /  10.7 °C 30.1 in /  1018.8 hPa Calm     83 % 0 in /  0.0 mm
23:12 56.1 °F /  13.4 °C 51.1 °F /  10.6 °C 30.1 in /  1018.8 hPa Calm     83 % 0 in /  0.0 mm
23:17 55.9 °F /  13.3 °C 51.3 °F /  10.7 °C 30.1 in /  1018.8 hPa Calm     84 % 0 in /  0.0 mm
23:22 55.6 °F /  13.1 °C 51.1 °F /  10.6 °C 30.1 in /  1018.8 hPa Calm     85 % 0 in /  0.0 mm
23:27 55 °F /  12.8 °C 50.9 °F /  10.5 °C 30.1 in /  1018.8 hPa Calm     86 % 0 in /  0.0 mm
23:32 54.9 °F /  12.7 °C 50.7 °F /  10.4 °C 30.1 in /  1018.8 hPa Calm     86 % 0 in /  0.0 mm
23:37 54.7 °F /  12.6 °C 50.9 °F /  10.5 °C 30.1 in /  1018.8 hPa Calm     87 % 0 in /  0.0 mm
23:42 54.5 °F /  12.5 °C 50.7 °F /  10.4 °C 30.1 in /  1018.8 hPa Calm     87 % 0 in /  0.0 mm
23:47 54.1 °F /  12.3 °C 50.4 °F /  10.2 °C 30.1 in /  1018.8 hPa Calm     87 % 0 in /  0.0 mm
23:57 53.8 °F /  12.1 °C 50.4 °F /  10.2 °C 30.1 in /  1018.5 hPa Calm     88 % 0 in /  0.0 mm
Meteo18
Compliments of Weather Underground - 4 mb

Script developed by  Jim McMurry - jmcmurry@mwt.net Adapted for the template by  Wim van der Kuil - Leuven-Template.eu

You find our weather info also at:

European Weather Network

Weather Underground

Equipment we use:

Weather-station
Davis Vue

Weather-program
Meteohub

Weather-server
Raspberry PI 2 B+

Provider
1 and 1

Davis Vue

Meteohub

Raspberry PI 2 B+

1 and 1